sensor_id;sensor_type;location;lat;lon;timestamp;pressure;altitude;pressure_sealevel;temperature;humidity
39555;BME280;25231;48.746;9.234;2023-03-08T00:02:24;95361.00;;;2.92;67.62
39555;BME280;25231;48.746;9.234;2023-03-08T00:04:53;95368.78;;;2.92;68.12
39555;BME280;25231;48.746;9.234;2023-03-08T00:07:19;95367.56;;;2.95;68.17
39555;BME280;25231;48.746;9.234;2023-03-08T00:09:45;95361.59;;;2.95;69.03
39555;BME280;25231;48.746;9.234;2023-03-08T00:12:10;95365.47;;;3.04;68.08
39555;BME280;25231;48.746;9.234;2023-03-08T00:14:35;95358.06;;;3.07;68.15
39555;BME280;25231;48.746;9.234;2023-03-08T00:17:01;95360.44;;;3.09;67.86
39555;BME280;25231;48.746;9.234;2023-03-08T00:19:27;95370.81;;;3.09;67.96
39555;BME280;25231;48.746;9.234;2023-03-08T00:21:52;95365.22;;;3.12;68.87
39555;BME280;25231;48.746;9.234;2023-03-08T00:24:17;95363.63;;;3.11;67.81
39555;BME280;25231;48.746;9.234;2023-03-08T00:26:44;95353.41;;;3.16;68.20
39555;BME280;25231;48.746;9.234;2023-03-08T00:29:09;95369.22;;;3.08;68.27
39555;BME280;25231;48.746;9.234;2023-03-08T00:31:34;95368.56;;;3.12;68.37
39555;BME280;25231;48.746;9.234;2023-03-08T00:34:00;95372.31;;;3.16;68.41
39555;BME280;25231;48.746;9.234;2023-03-08T00:36:25;95375.47;;;3.18;68.69
39555;BME280;25231;48.746;9.234;2023-03-08T00:38:51;95377.06;;;3.19;68.33
39555;BME280;25231;48.746;9.234;2023-03-08T00:41:17;95385.91;;;3.12;68.74
39555;BME280;25231;48.746;9.234;2023-03-08T00:43:42;95386.69;;;3.12;68.88
39555;BME280;25231;48.746;9.234;2023-03-08T00:46:08;95384.97;;;3.24;68.18
39555;BME280;25231;48.746;9.234;2023-03-08T00:48:33;95388.00;;;3.21;68.14
39555;BME280;25231;48.746;9.234;2023-03-08T00:50:59;95378.50;;;3.15;68.98
39555;BME280;25231;48.746;9.234;2023-03-08T00:53:25;95371.59;;;3.09;69.24
39555;BME280;25231;48.746;9.234;2023-03-08T00:55:55;95362.63;;;3.12;69.92
39555;BME280;25231;48.746;9.234;2023-03-08T00:58:21;95363.25;;;3.07;69.44
39555;BME280;25231;48.746;9.234;2023-03-08T01:00:47;95357.66;;;3.10;70.14
39555;BME280;25231;48.746;9.234;2023-03-08T01:03:13;95352.69;;;3.09;69.50
39555;BME280;25231;48.746;9.234;2023-03-08T01:05:44;95341.69;;;3.13;69.87
39555;BME280;25231;48.746;9.234;2023-03-08T01:08:10;95341.91;;;3.12;69.72
39555;BME280;25231;48.746;9.234;2023-03-08T01:10:35;95330.25;;;3.03;70.49
39555;BME280;25231;48.746;9.234;2023-03-08T01:13:01;95327.81;;;3.08;69.97
39555;BME280;25231;48.746;9.234;2023-03-08T01:15:27;95328.56;;;2.90;70.56
39555;BME280;25231;48.746;9.234;2023-03-08T01:17:52;95325.63;;;2.86;70.58
39555;BME280;25231;48.746;9.234;2023-03-08T01:20:17;95330.59;;;2.88;70.98
39555;BME280;25231;48.746;9.234;2023-03-08T01:22:43;95330.88;;;2.80;71.11
39555;BME280;25231;48.746;9.234;2023-03-08T01:25:08;95327.00;;;2.71;70.71
39555;BME280;25231;48.746;9.234;2023-03-08T01:27:34;95315.69;;;2.65;71.54
39555;BME280;25231;48.746;9.234;2023-03-08T01:29:59;95326.00;;;2.47;71.89
39555;BME280;25231;48.746;9.234;2023-03-08T01:32:25;95315.44;;;2.48;71.96
39555;BME280;25231;48.746;9.234;2023-03-08T01:34:50;95302.31;;;2.50;72.45
39555;BME280;25231;48.746;9.234;2023-03-08T01:37:16;95308.34;;;2.44;72.46
39555;BME280;25231;48.746;9.234;2023-03-08T01:39:41;95305.22;;;2.35;72.57
39555;BME280;25231;48.746;9.234;2023-03-08T01:42:07;95299.41;;;2.40;73.22
39555;BME280;25231;48.746;9.234;2023-03-08T01:44:52;95296.31;;;2.31;73.08
39555;BME280;25231;48.746;9.234;2023-03-08T01:47:20;95287.59;;;2.26;73.96
39555;BME280;25231;48.746;9.234;2023-03-08T01:49:46;95278.81;;;2.33;73.50
39555;BME280;25231;48.746;9.234;2023-03-08T01:52:17;95274.09;;;2.24;74.09
39555;BME280;25231;48.746;9.234;2023-03-08T01:54:54;95267.97;;;2.18;74.31
39555;BME280;25231;48.746;9.234;2023-03-08T01:57:24;95261.66;;;2.14;74.14
39555;BME280;25231;48.746;9.234;2023-03-08T01:59:52;95252.56;;;2.12;74.02
39555;BME280;25231;48.746;9.234;2023-03-08T02:02:25;95252.75;;;2.10;74.34
39555;BME280;25231;48.746;9.234;2023-03-08T02:04:52;95249.38;;;2.09;74.73
39555;BME280;25231;48.746;9.234;2023-03-08T02:07:17;95246.09;;;1.96;75.10
39555;BME280;25231;48.746;9.234;2023-03-08T02:09:43;95249.69;;;1.95;74.34
39555;BME280;25231;48.746;9.234;2023-03-08T02:12:11;95250.00;;;2.05;74.48
39555;BME280;25231;48.746;9.234;2023-03-08T02:14:38;95248.47;;;1.97;74.43
39555;BME280;25231;48.746;9.234;2023-03-08T02:17:05;95254.78;;;2.01;74.38
39555;BME280;25231;48.746;9.234;2023-03-08T02:19:42;95254.78;;;2.01;74.56
39555;BME280;25231;48.746;9.234;2023-03-08T02:22:13;95252.81;;;2.03;74.58
39555;BME280;25231;48.746;9.234;2023-03-08T02:24:39;95250.66;;;2.00;73.99
39555;BME280;25231;48.746;9.234;2023-03-08T02:27:25;95241.09;;;2.01;74.92
39555;BME280;25231;48.746;9.234;2023-03-08T02:29:51;95237.66;;;2.07;74.40
39555;BME280;25231;48.746;9.234;2023-03-08T02:32:16;95228.69;;;2.09;73.78
39555;BME280;25231;48.746;9.234;2023-03-08T02:34:42;95218.88;;;2.18;73.84
39555;BME280;25231;48.746;9.234;2023-03-08T02:37:07;95224.88;;;2.12;74.29
39555;BME280;25231;48.746;9.234;2023-03-08T02:39:33;95222.84;;;2.21;74.13
39555;BME280;25231;48.746;9.234;2023-03-08T02:41:58;95226.63;;;2.18;73.52
39555;BME280;25231;48.746;9.234;2023-03-08T02:44:24;95225.28;;;2.16;74.27
39555;BME280;25231;48.746;9.234;2023-03-08T02:46:50;95215.50;;;2.18;74.56
39555;BME280;25231;48.746;9.234;2023-03-08T02:49:15;95211.91;;;2.19;74.35
39555;BME280;25231;48.746;9.234;2023-03-08T02:51:41;95199.09;;;2.30;73.29
39555;BME280;25231;48.746;9.234;2023-03-08T02:54:06;95206.03;;;2.30;73.20
39555;BME280;25231;48.746;9.234;2023-03-08T02:56:32;95208.47;;;2.25;73.45
39555;BME280;25231;48.746;9.234;2023-03-08T02:58:57;95214.59;;;2.30;73.63
39555;BME280;25231;48.746;9.234;2023-03-08T03:01:23;95203.19;;;2.38;73.17
39555;BME280;25231;48.746;9.234;2023-03-08T03:03:48;95198.28;;;2.30;73.56
39555;BME280;25231;48.746;9.234;2023-03-08T03:06:16;95194.28;;;2.34;73.46
39555;BME280;25231;48.746;9.234;2023-03-08T03:08:42;95193.91;;;2.30;73.29
39555;BME280;25231;48.746;9.234;2023-03-08T03:11:21;95187.69;;;2.38;73.01
39555;BME280;25231;48.746;9.234;2023-03-08T03:13:52;95182.13;;;2.34;72.83
39555;BME280;25231;48.746;9.234;2023-03-08T03:16:17;95172.44;;;2.30;72.97
39555;BME280;25231;48.746;9.234;2023-03-08T03:18:43;95163.75;;;2.42;72.60
39555;BME280;25231;48.746;9.234;2023-03-08T03:21:11;95163.56;;;2.44;72.98
39555;BME280;25231;48.746;9.234;2023-03-08T03:23:37;95151.84;;;2.41;72.46
39555;BME280;25231;48.746;9.234;2023-03-08T03:26:12;95151.19;;;2.46;73.26
39555;BME280;25231;48.746;9.234;2023-03-08T03:28:38;95147.38;;;2.48;73.20
39555;BME280;25231;48.746;9.234;2023-03-08T03:31:12;95141.50;;;2.41;72.77
39555;BME280;25231;48.746;9.234;2023-03-08T03:33:38;95144.28;;;2.40;73.42
39555;BME280;25231;48.746;9.234;2023-03-08T03:36:04;95148.38;;;2.47;73.04
39555;BME280;25231;48.746;9.234;2023-03-08T03:38:30;95146.88;;;2.40;72.55
39555;BME280;25231;48.746;9.234;2023-03-08T03:41:02;95144.72;;;2.55;72.91
39555;BME280;25231;48.746;9.234;2023-03-08T03:43:28;95145.94;;;2.53;72.63
39555;BME280;25231;48.746;9.234;2023-03-08T03:45:58;95134.00;;;2.51;72.25
39555;BME280;25231;48.746;9.234;2023-03-08T03:48:23;95133.16;;;2.58;72.53
39555;BME280;25231;48.746;9.234;2023-03-08T03:50:56;95137.66;;;2.62;71.96
39555;BME280;25231;48.746;9.234;2023-03-08T03:53:22;95133.75;;;2.60;72.71
39555;BME280;25231;48.746;9.234;2023-03-08T03:55:47;95135.66;;;2.64;72.69
39555;BME280;25231;48.746;9.234;2023-03-08T03:58:13;95121.00;;;2.58;72.75
39555;BME280;25231;48.746;9.234;2023-03-08T04:00:38;95132.59;;;2.56;73.41
39555;BME280;25231;48.746;9.234;2023-03-08T04:03:03;95130.34;;;2.59;72.74
39555;BME280;25231;48.746;9.234;2023-03-08T04:05:28;95123.72;;;2.63;73.44
39555;BME280;25231;48.746;9.234;2023-03-08T04:07:54;95131.16;;;2.60;72.98
39555;BME280;25231;48.746;9.234;2023-03-08T04:10:19;95121.53;;;2.67;72.50
39555;BME280;25231;48.746;9.234;2023-03-08T04:12:47;95123.59;;;2.58;73.10
39555;BME280;25231;48.746;9.234;2023-03-08T04:15:13;95110.81;;;2.63;73.17
39555;BME280;25231;48.746;9.234;2023-03-08T04:17:38;95109.38;;;2.67;72.57
39555;BME280;25231;48.746;9.234;2023-03-08T04:20:04;95099.31;;;2.59;72.90
39555;BME280;25231;48.746;9.234;2023-03-08T04:22:30;95098.66;;;2.64;72.68
39555;BME280;25231;48.746;9.234;2023-03-08T04:24:55;95108.34;;;2.68;73.30
39555;BME280;25231;48.746;9.234;2023-03-08T04:27:21;95093.69;;;2.62;72.65
39555;BME280;25231;48.746;9.234;2023-03-08T04:29:46;95089.38;;;2.74;72.71
39555;BME280;25231;48.746;9.234;2023-03-08T04:32:11;95094.78;;;2.73;72.95
39555;BME280;25231;48.746;9.234;2023-03-08T04:34:37;95093.28;;;2.65;73.01
39555;BME280;25231;48.746;9.234;2023-03-08T04:37:02;95105.72;;;2.57;73.06
39555;BME280;25231;48.746;9.234;2023-03-08T04:39:27;95119.50;;;2.69;72.43
39555;BME280;25231;48.746;9.234;2023-03-08T04:41:53;95104.22;;;2.67;72.76
39555;BME280;25231;48.746;9.234;2023-03-08T04:44:18;95093.53;;;2.75;72.48
39555;BME280;25231;48.746;9.234;2023-03-08T04:46:43;95089.38;;;2.74;72.74
39555;BME280;25231;48.746;9.234;2023-03-08T04:49:09;95080.81;;;2.74;72.68
39555;BME280;25231;48.746;9.234;2023-03-08T04:51:34;95082.63;;;2.73;73.30
39555;BME280;25231;48.746;9.234;2023-03-08T04:53:59;95076.69;;;2.73;72.78
39555;BME280;25231;48.746;9.234;2023-03-08T04:56:25;95067.88;;;2.74;73.36
39555;BME280;25231;48.746;9.234;2023-03-08T04:58:50;95074.31;;;2.71;73.52
39555;BME280;25231;48.746;9.234;2023-03-08T05:01:20;95056.13;;;2.78;72.88
39555;BME280;25231;48.746;9.234;2023-03-08T05:03:47;95057.19;;;2.70;73.22
39555;BME280;25231;48.746;9.234;2023-03-08T05:06:16;95050.03;;;2.72;73.70
39555;BME280;25231;48.746;9.234;2023-03-08T05:08:42;95042.16;;;2.79;73.08
39555;BME280;25231;48.746;9.234;2023-03-08T05:11:08;95036.75;;;2.80;73.13
39555;BME280;25231;48.746;9.234;2023-03-08T05:13:37;95039.22;;;2.75;73.68
39555;BME280;25231;48.746;9.234;2023-03-08T05:16:04;95028.69;;;2.88;73.04
39555;BME280;25231;48.746;9.234;2023-03-08T05:18:31;95023.66;;;2.93;72.84
39555;BME280;25231;48.746;9.234;2023-03-08T05:20:58;95032.06;;;2.89;73.09
39555;BME280;25231;48.746;9.234;2023-03-08T05:23:25;95032.88;;;2.89;72.97
39555;BME280;25231;48.746;9.234;2023-03-08T05:25:52;95037.13;;;2.84;73.12
39555;BME280;25231;48.746;9.234;2023-03-08T05:28:18;95036.59;;;2.93;72.29
39555;BME280;25231;48.746;9.234;2023-03-08T05:30:44;95031.19;;;2.95;72.89
39555;BME280;25231;48.746;9.234;2023-03-08T05:33:09;95026.34;;;2.99;72.84
39555;BME280;25231;48.746;9.234;2023-03-08T05:35:34;95018.91;;;3.02;72.44
39555;BME280;25231;48.746;9.234;2023-03-08T05:38:00;95025.00;;;3.08;72.24
39555;BME280;25231;48.746;9.234;2023-03-08T05:40:25;95020.06;;;3.06;72.45
39555;BME280;25231;48.746;9.234;2023-03-08T05:42:50;95016.91;;;3.04;73.42
39555;BME280;25231;48.746;9.234;2023-03-08T05:45:16;95009.44;;;2.96;72.98
39555;BME280;25231;48.746;9.234;2023-03-08T05:47:41;95001.97;;;3.06;72.93
39555;BME280;25231;48.746;9.234;2023-03-08T05:50:07;94998.13;;;3.09;72.97
39555;BME280;25231;48.746;9.234;2023-03-08T05:52:32;94989.13;;;3.11;73.22
39555;BME280;25231;48.746;9.234;2023-03-08T05:54:58;95000.91;;;3.07;73.54
39555;BME280;25231;48.746;9.234;2023-03-08T05:57:23;94996.09;;;3.11;72.57
39555;BME280;25231;48.746;9.234;2023-03-08T05:59:48;94993.75;;;3.21;72.74
39555;BME280;25231;48.746;9.234;2023-03-08T06:02:14;94997.44;;;3.25;73.11
39555;BME280;25231;48.746;9.234;2023-03-08T06:04:39;95000.72;;;3.20;73.17
39555;BME280;25231;48.746;9.234;2023-03-08T06:07:04;95000.50;;;3.33;73.63
39555;BME280;25231;48.746;9.234;2023-03-08T06:09:30;94999.81;;;3.38;73.45
39555;BME280;25231;48.746;9.234;2023-03-08T06:11:55;94992.75;;;3.45;73.64
39555;BME280;25231;48.746;9.234;2023-03-08T06:14:21;94998.69;;;3.46;73.38
39555;BME280;25231;48.746;9.234;2023-03-08T06:16:46;95001.16;;;3.41;73.23
39555;BME280;25231;48.746;9.234;2023-03-08T06:19:13;95003.53;;;3.42;72.92
39555;BME280;25231;48.746;9.234;2023-03-08T06:21:39;94995.66;;;3.37;73.93
39555;BME280;25231;48.746;9.234;2023-03-08T06:24:04;94992.97;;;3.44;73.16
39555;BME280;25231;48.746;9.234;2023-03-08T06:26:30;94994.53;;;3.45;73.95
39555;BME280;25231;48.746;9.234;2023-03-08T06:28:55;94978.44;;;3.43;73.83
39555;BME280;25231;48.746;9.234;2023-03-08T06:31:21;94981.81;;;3.43;74.41
39555;BME280;25231;48.746;9.234;2023-03-08T06:33:46;94972.13;;;3.50;74.61
39555;BME280;25231;48.746;9.234;2023-03-08T06:36:14;94976.84;;;3.42;73.66
39555;BME280;25231;48.746;9.234;2023-03-08T06:38:40;94971.13;;;3.40;73.90
39555;BME280;25231;48.746;9.234;2023-03-08T06:41:07;94968.66;;;3.45;73.41
39555;BME280;25231;48.746;9.234;2023-03-08T06:43:32;94959.72;;;3.41;73.75
39555;BME280;25231;48.746;9.234;2023-03-08T06:45:58;94963.00;;;3.36;73.81
39555;BME280;25231;48.746;9.234;2023-03-08T06:48:27;94955.34;;;3.41;72.99
39555;BME280;25231;48.746;9.234;2023-03-08T06:50:52;94955.00;;;3.49;73.32
39555;BME280;25231;48.746;9.234;2023-03-08T06:53:17;94946.00;;;3.40;73.78
39555;BME280;25231;48.746;9.234;2023-03-08T06:55:43;94945.31;;;3.56;72.92
39555;BME280;25231;48.746;9.234;2023-03-08T06:58:08;94948.03;;;3.50;72.86
39555;BME280;25231;48.746;9.234;2023-03-08T07:00:34;94945.66;;;3.48;72.45
39555;BME280;25231;48.746;9.234;2023-03-08T07:02:59;94934.81;;;3.63;72.67
39555;BME280;25231;48.746;9.234;2023-03-08T07:05:25;94930.78;;;3.67;71.85
39555;BME280;25231;48.746;9.234;2023-03-08T07:07:50;94935.56;;;3.87;71.17
39555;BME280;25231;48.746;9.234;2023-03-08T07:10:17;94937.06;;;3.71;72.54
39555;BME280;25231;48.746;9.234;2023-03-08T07:12:45;94939.03;;;3.92;71.87
39555;BME280;25231;48.746;9.234;2023-03-08T07:15:14;94932.75;;;3.88;71.78
39555;BME280;25231;48.746;9.234;2023-03-08T07:17:42;94917.69;;;4.02;71.73
39555;BME280;25231;48.746;9.234;2023-03-08T07:20:12;94907.03;;;3.87;71.43
39555;BME280;25231;48.746;9.234;2023-03-08T07:22:39;94908.94;;;3.91;71.63
39555;BME280;25231;48.746;9.234;2023-03-08T07:25:07;94914.78;;;3.98;72.53
39555;BME280;25231;48.746;9.234;2023-03-08T07:27:32;94905.34;;;3.92;71.93
39555;BME280;25231;48.746;9.234;2023-03-08T07:29:58;94904.78;;;3.90;72.11
39555;BME280;25231;48.746;9.234;2023-03-08T07:32:23;94907.56;;;4.00;71.79
39555;BME280;25231;48.746;9.234;2023-03-08T07:34:55;94905.66;;;3.96;72.53
39555;BME280;25231;48.746;9.234;2023-03-08T07:37:20;94907.75;;;4.10;72.33
39555;BME280;25231;48.746;9.234;2023-03-08T07:39:46;94902.75;;;4.21;72.29
39555;BME280;25231;48.746;9.234;2023-03-08T07:42:11;94887.88;;;4.16;72.38
39555;BME280;25231;48.746;9.234;2023-03-08T07:44:37;94885.38;;;4.21;72.41
39555;BME280;25231;48.746;9.234;2023-03-08T07:47:04;94883.81;;;4.20;72.67
39555;BME280;25231;48.746;9.234;2023-03-08T07:49:30;94874.69;;;4.17;74.26
39555;BME280;25231;48.746;9.234;2023-03-08T07:51:55;94873.34;;;4.15;74.44
39555;BME280;25231;48.746;9.234;2023-03-08T07:54:20;94872.66;;;4.19;75.30
39555;BME280;25231;48.746;9.234;2023-03-08T07:56:46;94864.81;;;4.48;87.81
39555;BME280;25231;48.746;9.234;2023-03-08T07:59:11;94857.66;;;4.72;79.19
39555;BME280;25231;48.746;9.234;2023-03-08T08:01:37;94856.72;;;4.61;78.71
39555;BME280;25231;48.746;9.234;2023-03-08T08:04:02;94855.00;;;4.33;80.21
39555;BME280;25231;48.746;9.234;2023-03-08T08:06:28;94850.03;;;4.48;80.33
39555;BME280;25231;48.746;9.234;2023-03-08T08:08:54;94836.75;;;4.62;81.89
39555;BME280;25231;48.746;9.234;2023-03-08T08:11:20;94830.00;;;4.60;80.80
39555;BME280;25231;48.746;9.234;2023-03-08T08:13:46;94819.19;;;4.69;80.96
39555;BME280;25231;48.746;9.234;2023-03-08T08:16:12;94812.47;;;4.68;81.66
39555;BME280;25231;48.746;9.234;2023-03-08T08:18:38;94820.53;;;4.88;80.85
39555;BME280;25231;48.746;9.234;2023-03-08T08:21:06;94809.97;;;4.94;81.04
39555;BME280;25231;48.746;9.234;2023-03-08T08:23:32;94799.25;;;4.91;80.15
39555;BME280;25231;48.746;9.234;2023-03-08T08:25:58;94798.25;;;4.92;79.35
39555;BME280;25231;48.746;9.234;2023-03-08T08:28:25;94801.34;;;4.89;78.93
39555;BME280;25231;48.746;9.234;2023-03-08T08:30:59;94791.44;;;4.69;79.43
39555;BME280;25231;48.746;9.234;2023-03-08T08:33:27;94779.16;;;4.81;80.06
39555;BME280;25231;48.746;9.234;2023-03-08T08:35:53;94774.13;;;4.75;79.15
39555;BME280;25231;48.746;9.234;2023-03-08T08:38:18;94756.03;;;4.80;78.82
39555;BME280;25231;48.746;9.234;2023-03-08T08:40:44;94747.66;;;4.73;79.45
39555;BME280;25231;48.746;9.234;2023-03-08T08:43:09;94750.34;;;4.61;79.40
39555;BME280;25231;48.746;9.234;2023-03-08T08:45:36;94749.47;;;4.72;78.63
39555;BME280;25231;48.746;9.234;2023-03-08T08:48:01;94752.75;;;4.84;78.63
39555;BME280;25231;48.746;9.234;2023-03-08T08:50:26;94744.75;;;4.69;78.52
39555;BME280;25231;48.746;9.234;2023-03-08T08:52:52;94737.81;;;4.75;77.77
39555;BME280;25231;48.746;9.234;2023-03-08T08:55:17;94743.78;;;4.75;80.19
39555;BME280;25231;48.746;9.234;2023-03-08T08:57:42;94731.84;;;4.74;79.98
39555;BME280;25231;48.746;9.234;2023-03-08T09:00:08;94736.38;;;4.84;79.76
39555;BME280;25231;48.746;9.234;2023-03-08T09:02:34;94736.50;;;4.94;80.78
39555;BME280;25231;48.746;9.234;2023-03-08T09:05:00;94728.91;;;4.87;79.28
39555;BME280;25231;48.746;9.234;2023-03-08T09:07:25;94732.84;;;4.90;79.79
39555;BME280;25231;48.746;9.234;2023-03-08T09:09:53;94722.34;;;4.85;79.32
39555;BME280;25231;48.746;9.234;2023-03-08T09:12:18;94729.75;;;4.93;78.57
39555;BME280;25231;48.746;9.234;2023-03-08T09:14:45;94728.53;;;5.00;77.01
39555;BME280;25231;48.746;9.234;2023-03-08T09:17:10;94724.13;;;5.01;78.03
39555;BME280;25231;48.746;9.234;2023-03-08T09:19:36;94726.72;;;5.01;77.77
39555;BME280;25231;48.746;9.234;2023-03-08T09:22:01;94723.66;;;4.82;78.71
39555;BME280;25231;48.746;9.234;2023-03-08T09:24:27;94715.84;;;5.04;78.49
39555;BME280;25231;48.746;9.234;2023-03-08T09:26:52;94710.91;;;5.02;78.55
39555;BME280;25231;48.746;9.234;2023-03-08T09:29:18;94707.00;;;5.00;78.85
39555;BME280;25231;48.746;9.234;2023-03-08T09:31:43;94696.03;;;5.20;79.16
39555;BME280;25231;48.746;9.234;2023-03-08T09:34:10;94689.22;;;5.14;78.75
39555;BME280;25231;48.746;9.234;2023-03-08T09:36:36;94690.66;;;5.26;78.19
39555;BME280;25231;48.746;9.234;2023-03-08T09:39:04;94682.53;;;5.18;78.11
39555;BME280;25231;48.746;9.234;2023-03-08T09:44:35;94678.53;;;5.10;80.00
39555;BME280;25231;48.746;9.234;2023-03-08T09:52:40;94673.78;;;5.56;77.69
39555;BME280;25231;48.746;9.234;2023-03-08T09:55:28;94680.81;;;5.60;77.63
39555;BME280;25231;48.746;9.234;2023-03-08T09:57:56;94669.44;;;5.66;79.78
39555;BME280;25231;48.746;9.234;2023-03-08T10:00:35;94665.34;;;5.75;80.17
39555;BME280;25231;48.746;9.234;2023-03-08T10:08:38;94645.28;;;5.98;77.53
39555;BME280;25231;48.746;9.234;2023-03-08T10:11:18;94644.50;;;6.02;77.82
39555;BME280;25231;48.746;9.234;2023-03-08T10:13:50;94633.53;;;6.37;76.78
39555;BME280;25231;48.746;9.234;2023-03-08T10:16:35;94642.16;;;6.48;76.54
39555;BME280;25231;48.746;9.234;2023-03-08T10:20:13;94638.88;;;6.62;76.13
39555;BME280;25231;48.746;9.234;2023-03-08T10:22:24;94640.41;;;6.63;76.70
39555;BME280;25231;48.746;9.234;2023-03-08T10:24:59;94631.88;;;6.68;77.55
39555;BME280;25231;48.746;9.234;2023-03-08T10:27:28;94631.16;;;6.93;77.43
39555;BME280;25231;48.746;9.234;2023-03-08T10:29:58;94623.88;;;7.05;77.32
39555;BME280;25231;48.746;9.234;2023-03-08T10:32:25;94627.53;;;6.99;78.93
39555;BME280;25231;48.746;9.234;2023-03-08T10:34:50;94620.00;;;7.07;83.77
39555;BME280;25231;48.746;9.234;2023-03-08T10:37:19;94621.84;;;7.17;85.58
39555;BME280;25231;48.746;9.234;2023-03-08T10:39:53;94612.22;;;7.23;89.66
39555;BME280;25231;48.746;9.234;2023-03-08T10:42:25;94610.66;;;7.47;90.04
39555;BME280;25231;48.746;9.234;2023-03-08T10:45:18;94604.41;;;7.63;90.80
39555;BME280;25231;48.746;9.234;2023-03-08T10:47:54;94601.50;;;8.00;89.90
39555;BME280;25231;48.746;9.234;2023-03-08T10:50:23;94587.63;;;8.35;88.66
39555;BME280;25231;48.746;9.234;2023-03-08T10:52:49;94585.91;;;8.64;88.84
39555;BME280;25231;48.746;9.234;2023-03-08T10:55:25;94572.31;;;8.72;88.52
39555;BME280;25231;48.746;9.234;2023-03-08T10:57:59;94578.63;;;9.10;87.59
39555;BME280;25231;48.746;9.234;2023-03-08T11:00:41;94584.31;;;9.56;85.43
39555;BME280;25231;48.746;9.234;2023-03-08T11:03:17;94570.84;;;9.73;85.40
39555;BME280;25231;48.746;9.234;2023-03-08T11:06:26;94562.00;;;9.93;84.81
39555;BME280;25231;48.746;9.234;2023-03-08T11:08:53;94580.97;;;9.80;86.22
39555;BME280;25231;48.746;9.234;2023-03-08T11:11:18;94565.34;;;9.70;87.53
39555;BME280;25231;48.746;9.234;2023-03-08T11:13:46;94558.53;;;9.74;88.12
39555;BME280;25231;48.746;9.234;2023-03-08T11:16:41;94554.88;;;9.70;89.07
39555;BME280;25231;48.746;9.234;2023-03-08T11:32:36;94589.31;;;10.11;89.14
39555;BME280;25231;48.746;9.234;2023-03-08T11:35:27;94583.53;;;10.14;89.04
39555;BME280;25231;48.746;9.234;2023-03-08T11:38:11;94584.50;;;10.23;88.88
39555;BME280;25231;48.746;9.234;2023-03-08T11:46:24;94585.44;;;10.32;89.25
39555;BME280;25231;48.746;9.234;2023-03-08T11:49:18;94575.38;;;10.44;88.41
39555;BME280;25231;48.746;9.234;2023-03-08T11:52:11;94571.25;;;10.38;89.15
39555;BME280;25231;48.746;9.234;2023-03-08T11:54:57;94575.97;;;10.60;88.33
39555;BME280;25231;48.746;9.234;2023-03-08T11:57:26;94571.81;;;10.35;89.60
39555;BME280;25231;48.746;9.234;2023-03-08T12:00:03;94569.53;;;10.28;90.15
39555;BME280;25231;48.746;9.234;2023-03-08T12:02:40;94578.63;;;10.36;90.00
39555;BME280;25231;48.746;9.234;2023-03-08T12:05:12;94579.53;;;10.21;90.83
39555;BME280;25231;48.746;9.234;2023-03-08T12:07:48;94572.03;;;10.10;92.03
39555;BME280;25231;48.746;9.234;2023-03-08T12:10:29;94580.91;;;10.19;91.47
39555;BME280;25231;48.746;9.234;2023-03-08T12:13:13;94588.41;;;10.25;91.44
39555;BME280;25231;48.746;9.234;2023-03-08T12:15:48;94578.38;;;10.32;91.39
39555;BME280;25231;48.746;9.234;2023-03-08T12:18:22;94577.78;;;10.40;91.14
39555;BME280;25231;48.746;9.234;2023-03-08T12:20:53;94579.56;;;10.45;90.81
39555;BME280;25231;48.746;9.234;2023-03-08T12:26:06;94596.44;;;10.58;90.92
39555;BME280;25231;48.746;9.234;2023-03-08T12:28:47;94586.88;;;10.67;90.56
39555;BME280;25231;48.746;9.234;2023-03-08T12:31:23;94594.06;;;10.80;89.77
39555;BME280;25231;48.746;9.234;2023-03-08T12:33:51;94583.81;;;10.60;90.83
39555;BME280;25231;48.746;9.234;2023-03-08T12:36:17;94590.50;;;10.71;90.37
39555;BME280;25231;48.746;9.234;2023-03-08T12:38:45;94593.28;;;10.79;89.65
39555;BME280;25231;48.746;9.234;2023-03-08T12:41:39;94599.94;;;10.72;90.72
39555;BME280;25231;48.746;9.234;2023-03-08T12:44:21;94592.13;;;10.67;90.94
39555;BME280;25231;48.746;9.234;2023-03-08T12:46:54;94590.09;;;10.82;90.44
39555;BME280;25231;48.746;9.234;2023-03-08T12:49:25;94594.84;;;10.99;89.84
39555;BME280;25231;48.746;9.234;2023-03-08T12:51:57;94597.91;;;11.44;88.03
39555;BME280;25231;48.746;9.234;2023-03-08T12:54:23;94600.94;;;11.51;86.76
39555;BME280;25231;48.746;9.234;2023-03-08T12:56:50;94593.53;;;11.90;85.43
39555;BME280;25231;48.746;9.234;2023-03-08T13:01:43;94589.06;;;11.91;85.16
39555;BME280;25231;48.746;9.234;2023-03-08T13:17:38;94606.00;;;11.47;88.55
39555;BME280;25231;48.746;9.234;2023-03-08T13:20:13;94614.41;;;11.63;88.19
39555;BME280;25231;48.746;9.234;2023-03-08T13:28:12;94608.88;;;11.83;87.06
39555;BME280;25231;48.746;9.234;2023-03-08T13:30:48;94599.75;;;11.94;86.22
39555;BME280;25231;48.746;9.234;2023-03-08T13:33:22;94610.66;;;12.01;86.08
39555;BME280;25231;48.746;9.234;2023-03-08T13:35:59;94612.31;;;11.97;86.52
39555;BME280;25231;48.746;9.234;2023-03-08T13:38:28;94612.53;;;11.82;87.66
39555;BME280;25231;48.746;9.234;2023-03-08T13:40:55;94605.13;;;12.03;86.77
39555;BME280;25231;48.746;9.234;2023-03-08T13:43:22;94601.41;;;12.04;86.57
39555;BME280;25231;48.746;9.234;2023-03-08T13:45:51;94599.13;;;12.16;86.27
39555;BME280;25231;48.746;9.234;2023-03-08T13:48:17;94594.44;;;12.13;85.72
39555;BME280;25231;48.746;9.234;2023-03-08T13:50:45;94603.13;;;12.14;86.37
39555;BME280;25231;48.746;9.234;2023-03-08T13:53:18;94594.44;;;12.27;85.23
39555;BME280;25231;48.746;9.234;2023-03-08T13:55:47;94594.84;;;12.20;85.47
39555;BME280;25231;48.746;9.234;2023-03-08T13:58:26;94574.44;;;12.31;85.05
39555;BME280;25231;48.746;9.234;2023-03-08T14:01:22;94580.84;;;12.25;85.67
39555;BME280;25231;48.746;9.234;2023-03-08T14:03:48;94565.09;;;12.38;85.12
39555;BME280;25231;48.746;9.234;2023-03-08T14:06:23;94556.63;;;12.41;85.05
39555;BME280;25231;48.746;9.234;2023-03-08T14:08:50;94557.00;;;12.48;84.27
39555;BME280;25231;48.746;9.234;2023-03-08T14:11:28;94554.38;;;12.62;83.80
39555;BME280;25231;48.746;9.234;2023-03-08T14:13:54;94542.59;;;12.60;83.40
39555;BME280;25231;48.746;9.234;2023-03-08T14:16:31;94544.47;;;12.59;83.30